This is the latest recevied weather packets stored in our database for station/object KE9DBJ-13. If no packets are shown the sender has not sent any weather packets the latest 10 day(s).
| Time | Temp. | Humidity | Pressure | Rain* | Wind** | Luminosity | Snow |
|---|---|---|---|---|---|---|---|
| 1777324202 | 19.44° C | 78% | 1009 hPa | 0 mm | - | - | - |
| 1777323602 | 19.44° C | 78% | 1008.7 hPa | 0.51 mm | - | - | - |
| 1777323002 | 19.44° C | 81% | 1008.8 hPa | 1.02 mm | - | - | - |
| 1777322402 | 20° C | 80% | 1010.2 hPa | 0 mm | - | - | - |
| 1777321802 | 20.56° C | 72% | 1010.6 hPa | 0 mm | - | - | - |
| 1777321202 | 21.11° C | 69% | 1010.6 hPa | 0 mm | - | - | - |
| 1777320602 | 21.67° C | 68% | 1010.9 hPa | 0 mm | - | - | - |
| 1777320002 | 22.78° C | 64% | 1010.9 hPa | 0 mm | - | - | - |
| 1777319403 | 22.78° C | 63% | 1011.4 hPa | 0 mm | - | - | - |
| 1777318803 | 23.33° C | 66% | 1011.8 hPa | 0 mm | - | - | - |
| 1777318203 | 24.44° C | 62% | 1011.4 hPa | 0 mm | - | - | - |
| 1777317603 | 25° C | 56% | 1011.4 hPa | 0 mm | - | - | - |
| 1777317003 | 25° C | 56% | 1011.4 hPa | 0 mm | - | - | - |
| 1777316403 | 25° C | 57% | 1011.5 hPa | 0 mm | - | - | - |
| 1777315803 | 25.56° C | 57% | 1011.7 hPa | 0 mm | - | - | - |
| 1777315203 | 25.56° C | 59% | 1012 hPa | 0 mm | - | - | - |
| 1777314602 | 25° C | 58% | 1012.3 hPa | 0 mm | - | - | - |
| 1777314002 | 25° C | 61% | 1012.3 hPa | 0 mm | - | - | - |
| 1777313402 | 25° C | 58% | 1011.8 hPa | 0 mm | - | - | - |
| 1777312802 | 24.44° C | 59% | 1012.4 hPa | 0 mm | - | - | - |
| 1777312202 | 23.89° C | 64% | 1012.8 hPa | 0 mm | - | - | - |
| 1777311602 | 23.89° C | 61% | 1012.9 hPa | 0 mm | - | - | - |
| 1777311002 | 23.89° C | 61% | 1012.9 hPa | 0 mm | - | - | - |
| 1777310402 | 23.89° C | 57% | 1013 hPa | 0 mm | - | - | - |
| 1777309803 | 23.89° C | 58% | 1013 hPa | 0 mm | - | - | - |
* Rain latest hour (hover to see other rain measurements)
** Current wind speed in m/s (hover to see current wind gust speed)